sensor_id;sensor_type;location;lat;lon;timestamp;pressure;altitude;pressure_sealevel;temperature;humidity
64853;BME280;56050;55.558;-4.644;2022-10-31T00:02:19;100713.72;;;13.91;70.65
64853;BME280;56050;55.558;-4.644;2022-10-31T00:04:45;100706.31;;;13.92;70.69
64853;BME280;56050;55.558;-4.644;2022-10-31T00:07:10;100725.28;;;13.92;70.73
64853;BME280;56050;55.558;-4.644;2022-10-31T00:09:35;100710.22;;;13.91;70.33
64853;BME280;56050;55.558;-4.644;2022-10-31T00:12:01;100718.34;;;13.91;70.57
64853;BME280;56050;55.558;-4.644;2022-10-31T00:14:26;100717.22;;;13.88;70.33
64853;BME280;56050;55.558;-4.644;2022-10-31T00:16:52;100715.69;;;13.87;70.46
64853;BME280;56050;55.558;-4.644;2022-10-31T00:19:17;100726.53;;;13.87;70.64
64853;BME280;56050;55.558;-4.644;2022-10-31T00:21:42;100724.97;;;13.86;70.45
64853;BME280;56050;55.558;-4.644;2022-10-31T00:24:08;100724.97;;;13.86;70.68
64853;BME280;56050;55.558;-4.644;2022-10-31T00:26:34;100716.50;;;13.84;70.64
64853;BME280;56050;55.558;-4.644;2022-10-31T00:28:59;100719.25;;;13.81;70.48
64853;BME280;56050;55.558;-4.644;2022-10-31T00:31:25;100710.00;;;13.78;70.60
64853;BME280;56050;55.558;-4.644;2022-10-31T00:33:50;100706.59;;;13.74;70.29
64853;BME280;56050;55.558;-4.644;2022-10-31T00:36:18;100708.22;;;13.68;70.52
64853;BME280;56050;55.558;-4.644;2022-10-31T00:38:44;100707.91;;;13.63;70.53
64853;BME280;56050;55.558;-4.644;2022-10-31T00:41:11;100707.59;;;13.57;70.49
64853;BME280;56050;55.558;-4.644;2022-10-31T00:43:36;100702.28;;;13.50;70.74
64853;BME280;56050;55.558;-4.644;2022-10-31T00:46:02;100703.09;;;13.47;70.70
64853;BME280;56050;55.558;-4.644;2022-10-31T00:48:28;100703.13;;;13.43;70.69
64853;BME280;56050;55.558;-4.644;2022-10-31T00:50:53;100704.69;;;13.41;70.66
64853;BME280;56050;55.558;-4.644;2022-10-31T00:53:18;100712.81;;;13.41;70.99
64853;BME280;56050;55.558;-4.644;2022-10-31T00:55:44;100696.94;;;13.43;71.01
64853;BME280;56050;55.558;-4.644;2022-10-31T00:58:10;100703.47;;;13.45;70.97
64853;BME280;56050;55.558;-4.644;2022-10-31T01:00:35;100695.34;;;13.45;70.89
64853;BME280;56050;55.558;-4.644;2022-10-31T01:03:00;100687.63;;;13.47;71.14
64853;BME280;56050;55.558;-4.644;2022-10-31T01:05:26;100702.66;;;13.48;71.11
64853;BME280;56050;55.558;-4.644;2022-10-31T01:07:51;100707.28;;;13.51;71.15
64853;BME280;56050;55.558;-4.644;2022-10-31T01:10:17;100696.44;;;13.51;70.83
64853;BME280;56050;55.558;-4.644;2022-10-31T01:12:47;100697.22;;;13.52;71.05
64853;BME280;56050;55.558;-4.644;2022-10-31T01:15:16;100698.34;;;13.54;71.09
64853;BME280;56050;55.558;-4.644;2022-10-31T01:17:42;100689.81;;;13.56;70.95
64853;BME280;56050;55.558;-4.644;2022-10-31T01:20:09;100693.66;;;13.59;71.03
64853;BME280;56050;55.558;-4.644;2022-10-31T01:22:35;100695.94;;;13.60;70.83
64853;BME280;56050;55.558;-4.644;2022-10-31T01:25:01;100690.13;;;13.62;70.75
64853;BME280;56050;55.558;-4.644;2022-10-31T01:27:26;100685.91;;;13.61;71.08
64853;BME280;56050;55.558;-4.644;2022-10-31T01:29:51;100690.88;;;13.62;70.95
64853;BME280;56050;55.558;-4.644;2022-10-31T01:32:17;100693.59;;;13.62;71.12
64853;BME280;56050;55.558;-4.644;2022-10-31T01:34:42;100689.72;;;13.63;70.99
64853;BME280;56050;55.558;-4.644;2022-10-31T01:37:08;100689.72;;;13.63;70.91
64853;BME280;56050;55.558;-4.644;2022-10-31T01:39:33;100692.00;;;13.65;70.88
64853;BME280;56050;55.558;-4.644;2022-10-31T01:41:59;100681.56;;;13.67;70.98
64853;BME280;56050;55.558;-4.644;2022-10-31T01:49:27;100688.88;;;13.70;70.70
64853;BME280;56050;55.558;-4.644;2022-10-31T01:52:21;100684.19;;;13.70;71.05
64853;BME280;56050;55.558;-4.644;2022-10-31T01:54:53;100688.81;;;13.73;70.81
64853;BME280;56050;55.558;-4.644;2022-10-31T01:57:21;100686.09;;;13.73;70.64
64853;BME280;56050;55.558;-4.644;2022-10-31T01:59:49;100678.34;;;13.75;70.73
64853;BME280;56050;55.558;-4.644;2022-10-31T02:02:17;100682.22;;;13.74;70.62
64853;BME280;56050;55.558;-4.644;2022-10-31T02:04:44;100681.81;;;13.76;70.74
64853;BME280;56050;55.558;-4.644;2022-10-31T02:07:14;100664.81;;;13.75;70.67
64853;BME280;56050;55.558;-4.644;2022-10-31T02:09:42;100652.78;;;13.76;70.65
64853;BME280;56050;55.558;-4.644;2022-10-31T02:12:09;100654.34;;;13.77;70.73
64853;BME280;56050;55.558;-4.644;2022-10-31T02:14:36;100649.28;;;13.79;70.66
64853;BME280;56050;55.558;-4.644;2022-10-31T02:17:03;100653.53;;;13.80;70.79
64853;BME280;56050;55.558;-4.644;2022-10-31T02:25:40;100664.53;;;13.93;71.08
64853;BME280;56050;55.558;-4.644;2022-10-31T02:33:26;100661.09;;;14.16;70.85
64853;BME280;56050;55.558;-4.644;2022-10-31T02:36:11;100668.72;;;14.24;70.65
64853;BME280;56050;55.558;-4.644;2022-10-31T02:38:52;100650.41;;;14.32;70.35
64853;BME280;56050;55.558;-4.644;2022-10-31T02:41:34;100662.31;;;14.38;70.64
64853;BME280;56050;55.558;-4.644;2022-10-31T02:46:45;100642.38;;;14.48;70.30
64853;BME280;56050;55.558;-4.644;2022-10-31T02:52:02;100643.78;;;14.56;70.12
64853;BME280;56050;55.558;-4.644;2022-10-31T02:54:28;100646.09;;;14.57;70.15
64853;BME280;56050;55.558;-4.644;2022-10-31T02:57:01;100647.97;;;14.60;69.98
64853;BME280;56050;55.558;-4.644;2022-10-31T02:59:30;100651.03;;;14.62;69.98
64853;BME280;56050;55.558;-4.644;2022-10-31T03:02:08;100640.97;;;14.63;70.32
64853;BME280;56050;55.558;-4.644;2022-10-31T03:12:30;100625.38;;;14.67;69.98
64853;BME280;56050;55.558;-4.644;2022-10-31T03:15:05;100620.31;;;14.69;70.11
64853;BME280;56050;55.558;-4.644;2022-10-31T03:17:57;100623.78;;;14.69;70.13
64853;BME280;56050;55.558;-4.644;2022-10-31T03:23:28;100612.09;;;14.73;70.43
64853;BME280;56050;55.558;-4.644;2022-10-31T03:25:56;100615.59;;;14.73;70.42
64853;BME280;56050;55.558;-4.644;2022-10-31T03:28:28;100602.03;;;14.73;70.40
64853;BME280;56050;55.558;-4.644;2022-10-31T03:30:56;100600.84;;;14.74;70.57
64853;BME280;56050;55.558;-4.644;2022-10-31T03:33:27;100597.72;;;14.76;70.67
64853;BME280;56050;55.558;-4.644;2022-10-31T03:35:55;100614.75;;;14.76;70.80
64853;BME280;56050;55.558;-4.644;2022-10-31T03:38:22;100609.66;;;14.78;70.64
64853;BME280;56050;55.558;-4.644;2022-10-31T03:40:49;100608.06;;;14.81;71.02
64853;BME280;56050;55.558;-4.644;2022-10-31T03:43:21;100611.88;;;14.83;70.78
64853;BME280;56050;55.558;-4.644;2022-10-31T03:45:47;100607.94;;;14.88;70.52
64853;BME280;56050;55.558;-4.644;2022-10-31T03:48:14;100613.31;;;14.91;70.80
64853;BME280;56050;55.558;-4.644;2022-10-31T03:53:45;100599.94;;;15.00;70.95
64853;BME280;56050;55.558;-4.644;2022-10-31T03:56:21;100600.63;;;15.04;70.77
64853;BME280;56050;55.558;-4.644;2022-10-31T03:59:01;100602.06;;;15.09;70.69
64853;BME280;56050;55.558;-4.644;2022-10-31T04:01:30;100604.28;;;15.14;70.76
64853;BME280;56050;55.558;-4.644;2022-10-31T04:03:58;100597.63;;;15.18;70.48
64853;BME280;56050;55.558;-4.644;2022-10-31T04:06:24;100597.63;;;15.18;70.65
64853;BME280;56050;55.558;-4.644;2022-10-31T04:08:54;100590.22;;;15.19;70.46
64853;BME280;56050;55.558;-4.644;2022-10-31T04:11:24;100587.19;;;15.17;70.88
64853;BME280;56050;55.558;-4.644;2022-10-31T04:13:52;100586.41;;;15.16;70.63
64853;BME280;56050;55.558;-4.644;2022-10-31T04:16:19;100593.03;;;15.15;70.55
64853;BME280;56050;55.558;-4.644;2022-10-31T04:18:46;100591.09;;;15.16;70.60
64853;BME280;56050;55.558;-4.644;2022-10-31T04:21:11;100580.66;;;15.14;70.65
64853;BME280;56050;55.558;-4.644;2022-10-31T04:23:37;100590.72;;;15.14;70.53
64853;BME280;56050;55.558;-4.644;2022-10-31T04:26:02;100579.53;;;15.12;70.36
64853;BME280;56050;55.558;-4.644;2022-10-31T04:28:28;100573.69;;;15.13;70.58
64853;BME280;56050;55.558;-4.644;2022-10-31T04:30:53;100573.78;;;15.10;70.64
64853;BME280;56050;55.558;-4.644;2022-10-31T04:33:19;100571.06;;;15.10;70.74
64853;BME280;56050;55.558;-4.644;2022-10-31T04:35:45;100566.81;;;15.09;70.66
64853;BME280;56050;55.558;-4.644;2022-10-31T04:38:11;100569.13;;;15.10;70.46
64853;BME280;56050;55.558;-4.644;2022-10-31T04:40:36;100573.34;;;15.11;70.61
64853;BME280;56050;55.558;-4.644;2022-10-31T04:43:02;100570.63;;;15.11;70.46
64853;BME280;56050;55.558;-4.644;2022-10-31T04:45:27;100563.25;;;15.12;70.39
64853;BME280;56050;55.558;-4.644;2022-10-31T04:47:52;100572.16;;;15.12;70.59
64853;BME280;56050;55.558;-4.644;2022-10-31T04:50:18;100577.94;;;15.14;70.44
64853;BME280;56050;55.558;-4.644;2022-10-31T04:52:45;100559.28;;;15.16;70.38
64853;BME280;56050;55.558;-4.644;2022-10-31T04:55:11;100564.28;;;15.18;70.54
64853;BME280;56050;55.558;-4.644;2022-10-31T04:57:41;100560.81;;;15.17;70.49
64853;BME280;56050;55.558;-4.644;2022-10-31T05:00:08;100563.09;;;15.19;70.31
64853;BME280;56050;55.558;-4.644;2022-10-31T05:02:33;100554.94;;;15.19;70.49
64853;BME280;56050;55.558;-4.644;2022-10-31T05:04:59;100551.50;;;15.18;70.10
64853;BME280;56050;55.558;-4.644;2022-10-31T05:07:25;100560.38;;;15.19;70.24
64853;BME280;56050;55.558;-4.644;2022-10-31T05:09:50;100547.25;;;15.17;70.02
64853;BME280;56050;55.558;-4.644;2022-10-31T05:12:16;100549.19;;;15.17;70.32
64853;BME280;56050;55.558;-4.644;2022-10-31T05:14:41;100552.34;;;15.15;70.12
64853;BME280;56050;55.558;-4.644;2022-10-31T05:17:06;100544.53;;;15.17;70.22
64853;BME280;56050;55.558;-4.644;2022-10-31T05:19:32;100542.91;;;15.20;70.35
64853;BME280;56050;55.558;-4.644;2022-10-31T05:21:57;100546.75;;;15.22;70.29
64853;BME280;56050;55.558;-4.644;2022-10-31T05:24:23;100552.09;;;15.26;70.20
64853;BME280;56050;55.558;-4.644;2022-10-31T05:26:49;100562.88;;;15.29;70.15
64853;BME280;56050;55.558;-4.644;2022-10-31T05:29:14;100560.50;;;15.32;70.07
64853;BME280;56050;55.558;-4.644;2022-10-31T05:31:39;100556.50;;;15.36;70.12
64853;BME280;56050;55.558;-4.644;2022-10-31T05:34:05;100562.31;;;15.38;69.90
64853;BME280;56050;55.558;-4.644;2022-10-31T05:36:30;100561.78;;;15.43;70.18
64853;BME280;56050;55.558;-4.644;2022-10-31T05:38:56;100564.78;;;15.49;69.73
64853;BME280;56050;55.558;-4.644;2022-10-31T05:41:21;100556.16;;;15.54;69.87
64853;BME280;56050;55.558;-4.644;2022-10-31T05:43:47;100567.66;;;15.58;69.74
64853;BME280;56050;55.558;-4.644;2022-10-31T05:46:12;100568.38;;;15.62;69.80
64853;BME280;56050;55.558;-4.644;2022-10-31T05:48:37;100568.69;;;15.64;69.44
64853;BME280;56050;55.558;-4.644;2022-10-31T05:51:03;100561.66;;;15.66;69.45
64853;BME280;56050;55.558;-4.644;2022-10-31T05:53:28;100562.75;;;15.69;69.61
64853;BME280;56050;55.558;-4.644;2022-10-31T05:55:54;100560.41;;;15.71;69.46
64853;BME280;56050;55.558;-4.644;2022-10-31T05:58:19;100563.84;;;15.71;69.37
64853;BME280;56050;55.558;-4.644;2022-10-31T06:00:45;100558.00;;;15.73;69.51
64853;BME280;56050;55.558;-4.644;2022-10-31T06:03:10;100548.31;;;15.72;69.38
64853;BME280;56050;55.558;-4.644;2022-10-31T06:05:35;100548.75;;;15.70;69.25
64853;BME280;56050;55.558;-4.644;2022-10-31T06:08:01;100552.66;;;15.69;69.51
64853;BME280;56050;55.558;-4.644;2022-10-31T06:10:27;100553.09;;;15.68;69.53
64853;BME280;56050;55.558;-4.644;2022-10-31T06:12:53;100546.56;;;15.65;69.44
64853;BME280;56050;55.558;-4.644;2022-10-31T06:15:18;100544.25;;;15.64;69.74
64853;BME280;56050;55.558;-4.644;2022-10-31T06:17:43;100557.50;;;15.62;69.83
64853;BME280;56050;55.558;-4.644;2022-10-31T06:20:09;100554.78;;;15.62;69.72
64853;BME280;56050;55.558;-4.644;2022-10-31T06:22:35;100552.91;;;15.59;70.06
64853;BME280;56050;55.558;-4.644;2022-10-31T06:25:00;100550.63;;;15.57;70.07
64853;BME280;56050;55.558;-4.644;2022-10-31T06:27:26;100540.19;;;15.56;70.14
64853;BME280;56050;55.558;-4.644;2022-10-31T06:29:52;100531.72;;;15.54;70.13
64853;BME280;56050;55.558;-4.644;2022-10-31T06:32:18;100544.19;;;15.51;70.15
64853;BME280;56050;55.558;-4.644;2022-10-31T06:34:43;100544.59;;;15.50;70.20
64853;BME280;56050;55.558;-4.644;2022-10-31T06:37:12;100556.66;;;15.49;70.16
64853;BME280;56050;55.558;-4.644;2022-10-31T06:39:37;100546.97;;;15.48;70.42
64853;BME280;56050;55.558;-4.644;2022-10-31T06:42:04;100555.13;;;15.48;70.07
64853;BME280;56050;55.558;-4.644;2022-10-31T06:44:30;100550.88;;;15.47;70.04
64853;BME280;56050;55.558;-4.644;2022-10-31T06:46:55;100533.03;;;15.46;70.04
64853;BME280;56050;55.558;-4.644;2022-10-31T06:49:21;100543.91;;;15.46;70.03
64853;BME280;56050;55.558;-4.644;2022-10-31T06:51:47;100543.97;;;15.42;70.21
64853;BME280;56050;55.558;-4.644;2022-10-31T06:54:13;100537.75;;;15.42;70.05
64853;BME280;56050;55.558;-4.644;2022-10-31T06:56:39;100537.00;;;15.41;70.12
64853;BME280;56050;55.558;-4.644;2022-10-31T06:59:04;100533.88;;;15.43;70.33
64853;BME280;56050;55.558;-4.644;2022-10-31T07:01:30;100532.34;;;15.42;70.10
64853;BME280;56050;55.558;-4.644;2022-10-31T07:03:55;100534.66;;;15.43;70.04
64853;BME280;56050;55.558;-4.644;2022-10-31T07:06:20;100521.41;;;15.45;70.02
64853;BME280;56050;55.558;-4.644;2022-10-31T07:08:46;100525.25;;;15.48;70.00
64853;BME280;56050;55.558;-4.644;2022-10-31T07:11:11;100515.50;;;15.50;70.10
64853;BME280;56050;55.558;-4.644;2022-10-31T07:13:37;100525.19;;;15.51;69.87
64853;BME280;56050;55.558;-4.644;2022-10-31T07:16:04;100527.13;;;15.51;70.04
64853;BME280;56050;55.558;-4.644;2022-10-31T07:18:31;100516.69;;;15.49;69.89
64853;BME280;56050;55.558;-4.644;2022-10-31T07:20:57;100530.69;;;15.48;69.96
64853;BME280;56050;55.558;-4.644;2022-10-31T07:23:23;100530.69;;;15.48;69.67
64853;BME280;56050;55.558;-4.644;2022-10-31T07:25:48;100526.06;;;15.45;69.61
64853;BME280;56050;55.558;-4.644;2022-10-31T07:28:14;100533.09;;;15.42;70.04
64853;BME280;56050;55.558;-4.644;2022-10-31T07:30:39;100531.56;;;15.41;69.68
64853;BME280;56050;55.558;-4.644;2022-10-31T07:33:05;100523.88;;;15.40;69.70
64853;BME280;56050;55.558;-4.644;2022-10-31T07:35:31;100524.63;;;15.40;69.81
64853;BME280;56050;55.558;-4.644;2022-10-31T07:37:57;100528.53;;;15.39;69.87
64853;BME280;56050;55.558;-4.644;2022-10-31T07:40:23;100528.53;;;15.39;70.00
64853;BME280;56050;55.558;-4.644;2022-10-31T07:42:51;100531.22;;;15.39;69.68
64853;BME280;56050;55.558;-4.644;2022-10-31T07:45:18;100536.25;;;15.41;69.75
64853;BME280;56050;55.558;-4.644;2022-10-31T07:47:49;100528.84;;;15.41;69.98
64853;BME280;56050;55.558;-4.644;2022-10-31T07:50:17;100533.88;;;15.43;69.95
64853;BME280;56050;55.558;-4.644;2022-10-31T07:52:43;100549.31;;;15.46;69.63
64853;BME280;56050;55.558;-4.644;2022-10-31T07:55:09;100535.75;;;15.46;69.63
64853;BME280;56050;55.558;-4.644;2022-10-31T07:57:35;100546.97;;;15.48;69.58
64853;BME280;56050;55.558;-4.644;2022-10-31T08:00:08;100549.28;;;15.49;69.71
64853;BME280;56050;55.558;-4.644;2022-10-31T08:02:34;100550.72;;;15.54;69.43
64853;BME280;56050;55.558;-4.644;2022-10-31T08:05:00;100556.06;;;15.57;69.64
64853;BME280;56050;55.558;-4.644;2022-10-31T08:07:27;100548.25;;;15.59;69.11
64853;BME280;56050;55.558;-4.644;2022-10-31T08:09:53;100541.97;;;15.62;69.38
64853;BME280;56050;55.558;-4.644;2022-10-31T08:12:18;100547.41;;;15.62;68.96
64853;BME280;56050;55.558;-4.644;2022-10-31T08:14:44;100540.78;;;15.63;69.08
64853;BME280;56050;55.558;-4.644;2022-10-31T08:17:10;100532.63;;;15.63;68.81
64853;BME280;56050;55.558;-4.644;2022-10-31T08:19:35;100540.03;;;15.63;68.83
64853;BME280;56050;55.558;-4.644;2022-10-31T08:22:01;100538.06;;;15.63;69.13
64853;BME280;56050;55.558;-4.644;2022-10-31T08:24:26;100541.53;;;15.64;69.05
64853;BME280;56050;55.558;-4.644;2022-10-31T08:26:52;100540.38;;;15.65;68.88
64853;BME280;56050;55.558;-4.644;2022-10-31T08:29:17;100548.84;;;15.67;69.02
64853;BME280;56050;55.558;-4.644;2022-10-31T08:31:43;100536.38;;;15.69;68.92
64853;BME280;56050;55.558;-4.644;2022-10-31T08:34:08;100533.25;;;15.71;68.79
64853;BME280;56050;55.558;-4.644;2022-10-31T08:36:34;100535.50;;;15.72;68.79
64853;BME280;56050;55.558;-4.644;2022-10-31T08:39:00;100535.09;;;15.74;68.73
64853;BME280;56050;55.558;-4.644;2022-10-31T08:41:25;100540.09;;;15.75;68.75
64853;BME280;56050;55.558;-4.644;2022-10-31T08:43:51;100548.56;;;15.77;68.72
64853;BME280;56050;55.558;-4.644;2022-10-31T08:46:17;100550.44;;;15.80;68.65
64853;BME280;56050;55.558;-4.644;2022-10-31T08:48:43;100549.94;;;15.85;68.73
64853;BME280;56050;55.558;-4.644;2022-10-31T08:51:09;100553.75;;;15.88;68.35
64853;BME280;56050;55.558;-4.644;2022-10-31T08:53:35;100562.59;;;15.92;68.34
64853;BME280;56050;55.558;-4.644;2022-10-31T08:56:00;100556.31;;;15.95;68.14
64853;BME280;56050;55.558;-4.644;2022-10-31T08:58:26;100559.25;;;16.01;68.22
64853;BME280;56050;55.558;-4.644;2022-10-31T09:00:53;100548.31;;;16.04;68.09
64853;BME280;56050;55.558;-4.644;2022-10-31T09:03:22;100550.16;;;16.07;68.04
64853;BME280;56050;55.558;-4.644;2022-10-31T09:05:48;100550.84;;;16.11;67.91
64853;BME280;56050;55.558;-4.644;2022-10-31T09:08:14;100554.56;;;16.17;67.99
64853;BME280;56050;55.558;-4.644;2022-10-31T09:10:41;100548.16;;;16.24;67.96
64853;BME280;56050;55.558;-4.644;2022-10-31T09:13:13;100545.69;;;16.29;68.10
64853;BME280;56050;55.558;-4.644;2022-10-31T09:15:40;100552.50;;;16.37;68.01
64853;BME280;56050;55.558;-4.644;2022-10-31T09:18:07;100551.09;;;16.45;67.98
64853;BME280;56050;55.558;-4.644;2022-10-31T09:20:35;100557.13;;;16.53;67.79
64853;BME280;56050;55.558;-4.644;2022-10-31T09:23:06;100542.91;;;16.62;67.92
64853;BME280;56050;55.558;-4.644;2022-10-31T09:25:33;100540.31;;;16.71;67.77
64853;BME280;56050;55.558;-4.644;2022-10-31T09:27:59;100529.56;;;16.80;67.47
64853;BME280;56050;55.558;-4.644;2022-10-31T09:30:27;100526.97;;;16.89;67.34
64853;BME280;56050;55.558;-4.644;2022-10-31T09:32:57;100532.09;;;16.99;67.68
64853;BME280;56050;55.558;-4.644;2022-10-31T09:35:23;100516.97;;;17.11;67.26
64853;BME280;56050;55.558;-4.644;2022-10-31T09:38:16;100517.50;;;17.19;67.08
64853;BME280;56050;55.558;-4.644;2022-10-31T09:40:47;100517.09;;;17.20;66.78
64853;BME280;56050;55.558;-4.644;2022-10-31T09:46:57;100521.66;;;17.11;66.66
64853;BME280;56050;55.558;-4.644;2022-10-31T09:54:48;100494.41;;;16.85;66.81
64853;BME280;56050;55.558;-4.644;2022-10-31T09:57:19;100498.00;;;16.70;67.21
64853;BME280;56050;55.558;-4.644;2022-10-31T09:59:47;100505.38;;;16.57;67.65
64853;BME280;56050;55.558;-4.644;2022-10-31T10:10:25;100502.25;;;16.13;69.09
64853;BME280;56050;55.558;-4.644;2022-10-31T10:18:47;100513.00;;;15.88;70.01
64853;BME280;56050;55.558;-4.644;2022-10-31T10:26:43;100521.78;;;15.79;70.80
64853;BME280;56050;55.558;-4.644;2022-10-31T10:31:53;100524.38;;;15.83;70.82
64853;BME280;56050;55.558;-4.644;2022-10-31T10:34:31;100508.44;;;15.85;70.97
64853;BME280;56050;55.558;-4.644;2022-10-31T10:37:05;100514.53;;;15.89;70.96
64853;BME280;56050;55.558;-4.644;2022-10-31T10:39:43;100511.72;;;15.93;71.20
64853;BME280;56050;55.558;-4.644;2022-10-31T10:42:13;100510.78;;;15.99;70.98
64853;BME280;56050;55.558;-4.644;2022-10-31T10:44:57;100506.78;;;16.04;70.91
64853;BME280;56050;55.558;-4.644;2022-10-31T10:47:51;100515.19;;;16.09;70.77
64853;BME280;56050;55.558;-4.644;2022-10-31T10:50:22;100521.28;;;16.13;70.89
64853;BME280;56050;55.558;-4.644;2022-10-31T10:55:41;100517.28;;;16.18;70.92
64853;BME280;56050;55.558;-4.644;2022-10-31T10:58:10;100512.94;;;16.20;70.78
64853;BME280;56050;55.558;-4.644;2022-10-31T11:00:44;100513.72;;;16.21;70.82
64853;BME280;56050;55.558;-4.644;2022-10-31T11:03:15;100517.84;;;16.25;70.69
64853;BME280;56050;55.558;-4.644;2022-10-31T11:05:53;100511.97;;;16.27;70.38
64853;BME280;56050;55.558;-4.644;2022-10-31T11:08:28;100511.88;;;16.30;70.15
64853;BME280;56050;55.558;-4.644;2022-10-31T11:11:10;100508.31;;;16.33;70.28
64853;BME280;56050;55.558;-4.644;2022-10-31T11:13:41;100510.16;;;16.36;70.08
64853;BME280;56050;55.558;-4.644;2022-10-31T11:16:11;100505.75;;;16.42;70.00
64853;BME280;56050;55.558;-4.644;2022-10-31T11:18:41;100506.38;;;16.46;69.83
64853;BME280;56050;55.558;-4.644;2022-10-31T11:21:27;100508.69;;;16.48;69.84
64853;BME280;56050;55.558;-4.644;2022-10-31T11:24:07;100512.50;;;16.51;69.60
64853;BME280;56050;55.558;-4.644;2022-10-31T11:26:38;100522.88;;;16.56;69.91
64853;BME280;56050;55.558;-4.644;2022-10-31T11:29:25;100520.91;;;16.56;69.75
64853;BME280;56050;55.558;-4.644;2022-10-31T11:31:53;100505.25;;;16.60;69.43
64853;BME280;56050;55.558;-4.644;2022-10-31T11:34:30;100518.44;;;16.62;69.79
64853;BME280;56050;55.558;-4.644;2022-10-31T11:37:22;100509.81;;;16.63;69.49
64853;BME280;56050;55.558;-4.644;2022-10-31T11:40:01;100505.16;;;16.64;69.29
64853;BME280;56050;55.558;-4.644;2022-10-31T11:42:35;100514.09;;;16.64;69.37
64853;BME280;56050;55.558;-4.644;2022-10-31T11:45:12;100500.47;;;16.64;69.16
64853;BME280;56050;55.558;-4.644;2022-10-31T11:47:41;100510.91;;;16.66;69.34
64853;BME280;56050;55.558;-4.644;2022-10-31T11:50:11;100502.75;;;16.66;69.15
64853;BME280;56050;55.558;-4.644;2022-10-31T11:52:38;100509.72;;;16.67;69.09
64853;BME280;56050;55.558;-4.644;2022-10-31T11:55:17;100515.94;;;16.67;69.21
64853;BME280;56050;55.558;-4.644;2022-10-31T11:57:49;100506.56;;;16.68;68.90
64853;BME280;56050;55.558;-4.644;2022-10-31T12:00:26;100516.72;;;16.68;68.82
64853;BME280;56050;55.558;-4.644;2022-10-31T12:03:06;100498.75;;;16.70;68.71
64853;BME280;56050;55.558;-4.644;2022-10-31T12:05:37;100509.50;;;16.74;68.98
64853;BME280;56050;55.558;-4.644;2022-10-31T12:08:04;100513.78;;;16.75;68.62
64853;BME280;56050;55.558;-4.644;2022-10-31T12:10:41;100498.22;;;16.75;68.54
64853;BME280;56050;55.558;-4.644;2022-10-31T12:13:31;100491.16;;;16.78;68.68
64853;BME280;56050;55.558;-4.644;2022-10-31T12:16:05;100500.41;;;16.80;68.31
64853;BME280;56050;55.558;-4.644;2022-10-31T12:19:18;100482.88;;;16.81;68.39
64853;BME280;56050;55.558;-4.644;2022-10-31T12:24:40;100496.72;;;16.87;68.20
64853;BME280;56050;55.558;-4.644;2022-10-31T12:32:26;100486.78;;;16.93;68.13
64853;BME280;56050;55.558;-4.644;2022-10-31T12:45:57;100472.53;;;17.01;67.66
64853;BME280;56050;55.558;-4.644;2022-10-31T12:51:19;100469.50;;;16.99;67.40
64853;BME280;56050;55.558;-4.644;2022-10-31T12:57:23;100484.63;;;17.00;67.52
64853;BME280;56050;55.558;-4.644;2022-10-31T13:02:35;100478.09;;;16.98;67.22
64853;BME280;56050;55.558;-4.644;2022-10-31T13:07:58;100444.38;;;16.95;67.46
64853;BME280;56050;55.558;-4.644;2022-10-31T13:13:00;100451.75;;;16.95;67.56
64853;BME280;56050;55.558;-4.644;2022-10-31T13:15:30;100456.84;;;16.93;67.43
64853;BME280;56050;55.558;-4.644;2022-10-31T13:18:03;100438.56;;;16.93;67.32
64853;BME280;56050;55.558;-4.644;2022-10-31T13:20:33;100445.97;;;16.93;67.48
64853;BME280;56050;55.558;-4.644;2022-10-31T13:23:21;100439.78;;;16.92;67.24
64853;BME280;56050;55.558;-4.644;2022-10-31T13:25:52;100438.56;;;16.93;67.58
64853;BME280;56050;55.558;-4.644;2022-10-31T13:30:50;100436.94;;;16.96;67.40
64853;BME280;56050;55.558;-4.644;2022-10-31T13:33:37;100418.22;;;16.98;67.35
64853;BME280;56050;55.558;-4.644;2022-10-31T13:41:48;100419.09;;;17.08;67.26
64853;BME280;56050;55.558;-4.644;2022-10-31T13:44:17;100412.75;;;17.11;67.28
64853;BME280;56050;55.558;-4.644;2022-10-31T13:46:44;100414.63;;;17.14;67.14
64853;BME280;56050;55.558;-4.644;2022-10-31T13:54:39;100416.13;;;17.27;66.94
64853;BME280;56050;55.558;-4.644;2022-10-31T13:57:28;100413.69;;;17.29;66.97
64853;BME280;56050;55.558;-4.644;2022-10-31T13:59:58;100412.19;;;17.28;66.81
64853;BME280;56050;55.558;-4.644;2022-10-31T14:02:33;100404.91;;;17.25;66.73
64853;BME280;56050;55.558;-4.644;2022-10-31T14:05:34;100403.81;;;17.23;66.42
64853;BME280;56050;55.558;-4.644;2022-10-31T14:08:04;100398.50;;;17.19;66.67
64853;BME280;56050;55.558;-4.644;2022-10-31T14:10:38;100402.41;;;17.18;66.81
64853;BME280;56050;55.558;-4.644;2022-10-31T14:13:15;100402.41;;;17.18;66.46
64853;BME280;56050;55.558;-4.644;2022-10-31T14:15:54;100414.06;;;17.19;66.66
64853;BME280;56050;55.558;-4.644;2022-10-31T14:18:24;100413.19;;;17.22;66.44
64853;BME280;56050;55.558;-4.644;2022-10-31T14:20:53;100413.50;;;17.24;66.59
64853;BME280;56050;55.558;-4.644;2022-10-31T14:25:53;100412.41;;;17.21;66.68
64853;BME280;56050;55.558;-4.644;2022-10-31T14:28:32;100399.69;;;17.18;66.58
64853;BME280;56050;55.558;-4.644;2022-10-31T14:30:59;100394.69;;;17.17;66.60
64853;BME280;56050;55.558;-4.644;2022-10-31T14:33:27;100393.91;;;17.16;66.46
64853;BME280;56050;55.558;-4.644;2022-10-31T14:36:18;100377.59;;;17.16;66.75
64853;BME280;56050;55.558;-4.644;2022-10-31T14:52:28;100366.38;;;17.14;66.43
64853;BME280;56050;55.558;-4.644;2022-10-31T14:54:55;100369.66;;;17.09;66.51
64853;BME280;56050;55.558;-4.644;2022-10-31T14:57:33;100368.25;;;17.04;66.75
64853;BME280;56050;55.558;-4.644;2022-10-31T15:00:18;100376.84;;;17.03;66.55
64853;BME280;56050;55.558;-4.644;2022-10-31T15:03:10;100376.53;;;17.01;66.52
64853;BME280;56050;55.558;-4.644;2022-10-31T15:05:45;100384.34;;;16.99;66.49